You are not logged in, Click here to log in
帕羅機場 PBH / VQPR 不丹離帕羅市中心約6公里
ICAO: VQPR Country: 不丹離帕羅市中心約6公里
Latitude: 27.4032 Longitude: 89.4246
Total Arrivals: 11 Total Departures: 9
Latest Arrival: BR3210 (ZULS-VQPR)Jason. Li Latest Departure: KB130W (VQPR-WSSS)Jason. Li
Scenery:
METAR : VQPR 131000Z 18002KT 9999 SCT020 OVC060 13/M02 Q1021

帕羅機場 PBH

You are accessing this site from IP address 100.26.176.182. Virtual Airline. CMS by phpVMS.Website designed by Zumeweb and edited by Theo Bearman.
There is 0 User(s) Online: | and 8 Guest(s) Online.
All information on this site is for fight simulation purposes only. This site is for flight logging for pilots of Virtual Airline&模擬飛行論壇 FlySim only.